Terminal Aerodrome Forecast
Issued by NWS

Home | Current Version | Previous Version | Text Only | Print | Product List | Glossary Off
Versions: 1 2 3 4 5 6 7 8 9 10 11 12 13 14 15 16 17 18 19 20 21 22 23 24 25 26 27 28 29 30 31 32 33 34 35

000
FTUS43 KLOT 172200 AAB
TAFORD
TAF AMD
KORD 172203Z 1722/1824 28015G25KT P6SM BKN027 OVC040
     FM172300 28015G25KT P6SM OVC022
     FM180200 32014G21KT P6SM OVC025
     FM180600 34012G17KT P6SM OVC025
     FM181700 34013KT P6SM SCT025 BKN035
     FM182300 34007KT P6SM FEW030=

USA.gov is the U.S. government's official web portal to all federal, state and local government web resources and services.